Time;durP1;ratioP1;P1;durP2;ratioP2;P2;SDS_P1;SDS_P2;PMS_P1;PMS_P2;Temp;Humidity;BMP_temperature;BMP_pressure;BME280_temperature;BME280_humidity;BME280_pressure;Samples;Min_cycle;Max_cycle;Signal;HPM_P1;HPM_P2
2022/11/27 08:38:19;;;;;;;39.30;19.10;;;;;;;3.52;83.02;102311.29;103094;1297;601134;-80
2022/11/27 08:41:03;;;;;;;36.40;16.00;;;;;;;3.52;82.60;102306.30;106925;1268;61296;-83
2022/11/27 08:43:32;;;;;;;32.90;15.80;;;;;;;3.48;84.29;102284.31;107612;1257;58732;-83
2022/11/27 08:46:06;;;;;;;30.40;14.60;;;;;;;3.61;82.52;102301.48;106597;1274;62220;-83
2022/11/27 08:49:08;;;;;;;30.20;13.00;;;;;;;3.67;81.51;102299.98;107775;1248;60881;31
2022/11/27 08:51:36;;;;;;;27.00;12.80;;;;;;;3.78;81.27;102298.40;105239;1277;1333196;-83
2022/11/27 08:54:06;;;;;;;29.70;15.00;;;;;;;3.89;80.73;102305.09;106196;1281;62496;-82
2022/11/27 08:56:35;;;;;;;25.10;12.50;;;;;;;3.96;80.03;102298.05;106659;1272;61247;-86
2022/11/27 08:59:03;;;;;;;27.00;13.80;;;;;;;3.89;79.56;102304.76;106317;1268;60649;-80
2022/11/27 09:01:32;;;;;;;30.40;12.50;;;;;;;3.99;80.53;102301.98;106790;1272;60406;-79
2022/11/27 09:04:01;;;;;;;32.90;12.50;;;;;;;4.10;80.27;102301.09;106646;1271;60893;-83
2022/11/27 09:06:36;;;;;;;24.20;11.20;;;;;;;4.15;80.14;102292.86;106353;1278;59262;-81
2022/11/27 09:09:05;;;;;;;30.50;13.90;;;;;;;4.24;80.26;102292.15;106237;1270;73036;-83
2022/11/27 09:11:35;;;;;;;24.80;12.20;;;;;;;4.31;78.66;102284.08;106450;1275;57693;-82
2022/11/27 09:14:04;;;;;;;24.00;11.70;;;;;;;4.40;79.38;102281.11;106493;1276;61248;-79
2022/11/27 09:16:35;;;;;;;26.30;13.00;;;;;;;4.35;78.31;102279.34;105941;1276;72278;-83
2022/11/27 09:19:03;;;;;;;25.30;12.60;;;;;;;4.34;78.34;102279.53;106666;1275;71498;-81
2022/11/27 09:21:32;;;;;;;26.60;13.20;;;;;;;4.44;79.86;102280.18;106359;1278;59534;-78
2022/11/27 09:24:01;;;;;;;27.90;12.60;;;;;;;4.57;83.42;102281.27;106144;1276;73136;-83
2022/11/27 09:26:30;;;;;;;28.00;13.60;;;;;;;4.59;82.85;102274.48;106262;1269;62442;-84
2022/11/27 09:28:59;;;;;;;29.40;14.40;;;;;;;4.45;81.33;102268.23;106632;1274;60791;-84
2022/11/27 09:31:27;;;;;;;30.20;14.20;;;;;;;4.46;81.77;102268.91;105936;1272;73224;-82
2022/11/27 09:33:58;;;;;;;33.70;13.60;;;;;;;4.52;82.91;102270.52;106073;1275;62331;-85
2022/11/27 09:36:27;;;;;;;29.00;12.60;;;;;;;4.53;81.81;102270.30;106324;1272;59997;-82
2022/11/27 09:38:59;;;;;;;27.80;13.10;;;;;;;4.43;81.00;102269.34;106421;1275;63098;-83
2022/11/27 09:41:52;;;;;;;32.00;13.70;;;;;;;4.27;80.90;102264.85;106549;1270;57431;-82
2022/11/27 09:44:32;;;;;;;32.50;13.50;;;;;;;4.16;82.13;102261.11;106154;1275;57773;-81
2022/11/27 09:47:19;;;;;;;34.00;13.20;;;;;;;4.10;82.15;102261.92;107275;1254;61427;-82
2022/11/27 09:50:14;;;;;;;27.30;13.50;;;;;;;4.05;81.92;102261.17;106831;1272;71362;-85
2022/11/27 09:53:20;;;;;;;28.00;14.00;;;;;;;3.96;82.38;102264.80;107615;1255;71049;31
2022/11/27 09:55:54;;;;;;;28.00;13.50;;;;;;;3.92;82.42;102265.90;107701;1254;73675;-87
2022/11/27 09:58:55;;;;;;;32.40;13.30;;;;;;;3.91;83.02;102265.59;107728;1258;61776;-83
2022/11/27 10:01:32;;;;;;;31.70;15.10;;;;;;;3.88;82.66;102263.39;105985;1280;59858;-82
2022/11/27 10:04:19;;;;;;;33.40;14.40;;;;;;;3.88;82.76;102262.02;106389;1275;71771;-81
2022/11/27 10:07:25;;;;;;;32.70;15.00;;;;;;;3.82;83.30;102259.89;106942;1268;61113;-82
2022/11/27 10:10:45;;;;;;;31.40;13.00;;;;;;;3.86;84.67;102251.20;107223;1258;69597;-86
2022/11/27 10:13:24;;;;;;;35.80;16.10;;;;;;;3.74;83.72;102228.20;106040;1281;73461;-81
2022/11/27 10:16:08;;;;;;;35.60;14.90;;;;;;;3.96;84.43;102243.43;106294;1275;61153;-85
2022/11/27 10:18:55;;;;;;;32.40;15.90;;;;;;;3.99;84.14;102240.42;106179;1280;59019;-83
2022/11/27 10:21:51;;;;;;;36.30;15.40;;;;;;;4.09;83.31;102244.87;106367;1274;72637;-84
2022/11/27 10:24:56;;;;;;;39.40;17.30;;;;;;;4.21;84.21;102242.73;106119;1281;70351;-78
2022/11/27 10:27:49;;;;;;;33.10;15.30;;;;;;;4.27;85.08;102242.24;106677;1278;60206;-83
2022/11/27 10:30:20;;;;;;;36.20;15.60;;;;;;;4.33;84.67;102243.50;106517;1278;62536;-85
2022/11/27 10:32:54;;;;;;;32.80;15.00;;;;;;;4.40;84.40;102243.52;106063;1283;57590;-80
2022/11/27 10:35:30;;;;;;;36.30;16.10;;;;;;;4.48;86.49;102240.91;105694;1275;60324;-80
2022/11/27 10:38:18;;;;;;;36.70;16.80;;;;;;;4.49;85.79;102241.59;106134;1275;62828;-81
2022/11/27 10:41:25;;;;;;;41.90;18.30;;;;;;;4.51;84.87;102243.95;106060;1278;61200;-83
2022/11/27 10:44:34;;;;;;;39.00;17.50;;;;;;;4.50;83.63;102241.20;106911;1254;59320;-81
2022/11/27 10:47:09;;;;;;;54.30;26.90;;;;;;;4.56;83.69;102234.56;106671;1281;62557;-82
2022/11/27 10:50:34;;;;;;;35.10;16.90;;;;;;;4.61;83.63;102231.31;106723;1253;61436;31
2022/11/27 10:53:35;;;;;;;30.10;15.90;;;;;;;4.67;81.10;102228.93;105896;1285;60748;-84
2022/11/27 10:56:14;;;;;;;33.00;15.70;;;;;;;4.79;79.79;102231.59;105949;1283;63966;-83
2022/11/27 10:59:03;;;;;;;38.10;17.60;;;;;;;5.01;83.83;102233.11;105909;1283;71427;-82
2022/11/27 11:01:48;;;;;;;31.00;15.50;;;;;;;4.98;80.63;102238.02;106251;1270;68174;-81
2022/11/27 11:04:32;;;;;;;34.70;16.50;;;;;;;5.07;82.32;102235.19;105752;1278;73174;-80
2022/11/27 11:07:28;;;;;;;36.50;16.80;;;;;;;5.14;83.46;102240.55;106016;1289;61712;-83
2022/11/27 11:09:57;;;;;;;35.50;17.40;;;;;;;5.22;83.04;102234.31;106284;1264;57692;-81
2022/11/27 11:12:26;;;;;;;35.90;17.00;;;;;;;5.36;85.06;102238.59;105445;1287;71079;-79
2022/11/27 11:14:59;;;;;;;33.80;16.50;;;;;;;5.35;84.42;102239.14;104979;1280;71171;-81
2022/11/27 11:17:33;;;;;;;35.90;17.80;;;;;;;5.28;84.63;102243.81;104629;1286;60866;-80
2022/11/27 11:20:23;;;;;;;30.80;16.10;;;;;;;5.21;83.05;102241.23;105545;1286;73221;-82
2022/11/27 11:22:52;;;;;;;43.00;19.10;;;;;;;5.20;83.27;102243.33;105109;1290;57659;-79
2022/11/27 11:25:22;;;;;;;39.20;18.00;;;;;;;5.32;83.94;102234.40;104898;1289;59272;-81
2022/11/27 11:27:51;;;;;;;40.50;18.80;;;;;;;5.31;83.51;102230.45;104761;1294;72008;-81
2022/11/27 11:30:29;;;;;;;32.80;17.00;;;;;;;5.32;83.23;102229.19;104617;1286;61221;-78
2022/11/27 11:33:03;;;;;;;35.30;17.10;;;;;;;5.44;84.11;102226.81;104572;1285;70111;-78
2022/11/27 11:35:35;;;;;;;33.60;17.10;;;;;;;5.48;82.78;102228.27;104815;1280;73702;-83
2022/11/27 11:38:15;;;;;;;36.60;17.40;;;;;;;5.37;82.28;102225.27;104822;1287;62049;-81
2022/11/27 11:40:58;;;;;;;34.80;17.60;;;;;;;5.40;83.18;102222.95;104686;1285;59067;-80
2022/11/27 11:43:36;;;;;;;34.40;16.30;;;;;;;5.35;83.23;102222.57;104970;1286;72838;-81
2022/11/27 11:46:18;;;;;;;38.00;17.80;;;;;;;5.34;83.39;102219.14;104745;1285;70293;-80
2022/11/27 11:48:54;;;;;;;34.20;16.80;;;;;;;5.40;84.29;102216.73;104592;1286;70523;-81
2022/11/27 11:51:51;;;;;;;33.80;17.10;;;;;;;5.35;83.33;102214.96;104789;1287;72005;-80
2022/11/27 11:54:53;;;;;;;34.90;17.80;;;;;;;5.34;83.94;102218.80;104596;1288;61099;-78
2022/11/27 11:57:45;;;;;;;37.80;19.00;;;;;;;5.18;84.27;102218.52;105493;1285;57691;-81
2022/11/27 12:00:23;;;;;;;36.10;17.00;;;;;;;5.13;84.71;102221.23;105726;1286;71926;-83
2022/11/27 12:03:36;;;;;;;39.30;20.00;;;;;;;4.88;84.99;102211.34;105406;1289;71434;-83
2022/11/27 12:06:23;;;;;;;40.00;20.50;;;;;;;4.95;85.59;102223.06;105089;1291;59071;-82
2022/11/27 12:09:23;;;;;;;42.70;20.60;;;;;;;4.96;85.93;102221.13;105469;1284;62611;-81
2022/11/27 12:12:32;;;;;;;43.60;21.40;;;;;;;4.87;86.33;102218.41;105049;1282;58343;-79
2022/11/27 12:15:43;;;;;;;40.30;20.00;;;;;;;4.96;86.92;102220.79;105369;1285;59162;-84
2022/11/27 12:18:36;;;;;;;40.80;20.40;;;;;;;4.94;86.56;102223.08;106004;1287;61215;-83
2022/11/27 12:21:11;;;;;;;43.30;21.10;;;;;;;4.97;86.56;102223.17;105586;1286;60904;-83
2022/11/27 12:24:00;;;;;;;38.30;19.00;;;;;;;4.92;86.59;102228.16;105982;1286;69457;-79
2022/11/27 12:26:55;;;;;;;46.40;20.90;;;;;;;4.87;87.18;102227.24;105569;1283;74390;-80
2022/11/27 12:29:38;;;;;;;43.70;21.20;;;;;;;4.87;87.78;102225.34;105430;1286;62022;-80
2022/11/27 12:33:02;;;;;;;45.40;23.10;;;;;;;4.90;88.11;102224.22;105210;1286;59251;-81
2022/11/27 12:36:06;;;;;;;45.00;22.90;;;;;;;4.96;87.52;102221.31;104370;1285;73505;-82
2022/11/27 12:39:16;;;;;;;40.60;19.80;;;;;;;4.99;87.36;102217.61;105041;1286;62765;-83
2022/11/27 12:41:50;;;;;;;47.00;21.60;;;;;;;5.02;87.19;102217.17;104939;1282;59320;-82
2022/11/27 12:44:34;;;;;;;45.20;22.10;;;;;;;4.98;87.05;102215.56;105440;1280;62480;-84
2022/11/27 12:47:43;;;;;;;51.30;23.20;;;;;;;4.93;87.66;102217.08;105892;1282;57506;-82
2022/11/27 12:50:55;;;;;;;50.60;24.10;;;;;;;5.06;88.07;102216.23;104652;1298;60612;-82
2022/11/27 12:53:55;;;;;;;40.40;19.90;;;;;;;5.12;88.17;102218.67;105142;1292;61950;-87
2022/11/27 12:56:44;;;;;;;55.80;24.80;;;;;;;5.22;89.07;102223.25;105207;1281;71423;-80
2022/11/27 12:59:30;;;;;;;50.40;24.10;;;;;;;5.21;88.82;102224.30;104777;1280;60615;-79
2022/11/27 13:02:08;;;;;;;51.90;23.70;;;;;;;5.18;88.83;102227.84;105229;1292;73187;-77
2022/11/27 13:04:53;;;;;;;51.40;24.00;;;;;;;5.26;89.37;102227.27;104614;1284;59236;-80
2022/11/27 13:07:26;;;;;;;57.10;24.50;;;;;;;5.28;89.83;102225.84;104627;1280;59122;-79
2022/11/27 13:10:22;;;;;;;50.00;26.30;;;;;;;5.28;89.64;102228.78;105616;1280;63348;-80
2022/11/27 13:13:13;;;;;;;49.30;23.40;;;;;;;5.24;89.39;102231.84;105554;1283;60881;-78
2022/11/27 13:16:10;;;;;;;44.30;23.30;;;;;;;5.18;89.38;102232.84;105433;1284;59313;-83
2022/11/27 13:18:43;;;;;;;50.30;23.90;;;;;;;5.12;89.32;102229.56;105692;1290;72956;-79
2022/11/27 13:21:28;;;;;;;49.30;23.30;;;;;;;5.05;89.44;102230.08;105600;1283;63369;-80
2022/11/27 13:24:01;;;;;;;50.20;23.60;;;;;;;5.01;89.82;102236.04;105827;1285;59144;-82
2022/11/27 13:26:29;;;;;;;51.90;25.40;;;;;;;4.98;89.87;102230.23;105048;1277;72873;-79
2022/11/27 13:29:05;;;;;;;52.50;23.90;;;;;;;4.99;90.01;102227.96;104949;1285;60878;-81
2022/11/27 13:31:38;;;;;;;51.40;24.10;;;;;;;4.97;90.11;102231.29;105646;1283;69809;-80
2022/11/27 13:34:20;;;;;;;53.10;25.90;;;;;;;5.02;89.89;102232.05;104977;1290;74071;-82
2022/11/27 13:36:58;;;;;;;48.50;23.10;;;;;;;5.02;90.42;102237.39;105739;1286;61636;-82
2022/11/27 13:39:39;;;;;;;50.80;25.10;;;;;;;5.04;90.94;102237.17;105857;1280;60468;-83
2022/11/27 13:42:21;;;;;;;51.40;24.50;;;;;;;5.03;90.73;102242.39;105967;1284;62305;-84
2022/11/27 13:45:28;;;;;;;51.50;26.20;;;;;;;4.99;90.81;102238.34;105372;1290;60896;-82
2022/11/27 13:48:00;;;;;;;54.60;26.90;;;;;;;4.95;90.97;102238.77;104965;1286;69627;-81
2022/11/27 13:50:30;;;;;;;52.90;24.70;;;;;;;4.94;91.16;102234.66;105083;1289;62490;-80
2022/11/27 13:53:05;;;;;;;50.50;24.90;;;;;;;4.96;91.15;102236.16;105379;1283;61219;-80
2022/11/27 13:55:50;;;;;;;52.80;26.60;;;;;;;4.91;90.62;102236.64;105283;1286;61394;-80
2022/11/27 13:58:33;;;;;;;53.20;25.80;;;;;;;4.88;90.72;102234.46;105094;1288;62327;-83
2022/11/27 14:01:24;;;;;;;51.10;25.70;;;;;;;4.89;91.25;102230.81;105261;1286;62174;-81
2022/11/27 14:03:52;;;;;;;53.50;28.40;;;;;;;4.85;91.29;102229.20;105582;1280;69787;-76
2022/11/27 14:06:30;;;;;;;57.10;26.20;;;;;;;4.82;91.55;102232.02;105612;1283;62759;-83
2022/11/27 14:09:06;;;;;;;58.00;29.30;;;;;;;4.82;91.85;102232.71;105311;1291;59152;-80
2022/11/27 14:11:46;;;;;;;59.60;31.00;;;;;;;4.75;91.78;102234.25;105418;1286;57602;-81
2022/11/27 14:14:27;;;;;;;55.50;28.60;;;;;;;4.76;91.94;102236.98;105192;1289;62367;-84
2022/11/27 14:17:03;;;;;;;59.40;30.20;;;;;;;4.81;91.93;102237.56;104739;1288;71478;-81
2022/11/27 14:19:46;;;;;;;55.20;29.00;;;;;;;4.81;92.04;102233.77;104749;1289;59209;-79
2022/11/27 14:22:32;;;;;;;57.00;30.20;;;;;;;4.82;91.96;102230.99;104498;1293;73153;-81
2022/11/27 14:25:01;;;;;;;57.30;31.60;;;;;;;4.83;92.06;102228.20;104558;1287;58828;-79
2022/11/27 14:27:35;;;;;;;53.80;29.80;;;;;;;4.80;91.91;102229.65;105130;1286;61341;-78
2022/11/27 14:30:40;;;;;;;47.80;26.20;;;;;;;4.83;91.89;102229.92;105238;1289;72264;-81
2022/11/27 14:33:22;;;;;;;40.30;21.30;;;;;;;4.83;91.09;102235.63;105471;1284;70965;-81
2022/11/27 14:35:59;;;;;;;38.90;20.20;;;;;;;4.82;89.77;102234.95;105747;1289;59709;-80
2022/11/27 14:38:30;;;;;;;35.40;18.90;;;;;;;4.75;89.01;102240.64;105565;1282;73222;-79
2022/11/27 14:41:21;;;;;;;28.30;15.20;;;;;;;4.71;88.23;102243.52;105548;1286;61156;-82
2022/11/27 14:44:06;;;;;;;31.90;18.40;;;;;;;4.64;88.03;102242.29;105637;1283;58294;-85
2022/11/27 14:46:36;;;;;;;30.40;17.20;;;;;;;4.67;87.42;102238.06;105843;1289;72822;-79
2022/11/27 14:49:05;;;;;;;28.50;19.10;;;;;;;4.62;86.82;102238.70;105782;1287;61337;-81
2022/11/27 14:51:36;;;;;;;28.30;16.00;;;;;;;4.50;86.77;102231.70;105117;1287;60682;-81
2022/11/27 14:54:24;;;;;;;29.70;18.30;;;;;;;4.53;86.71;102232.70;105136;1289;75015;-80
2022/11/27 14:56:54;;;;;;;29.30;17.70;;;;;;;4.55;87.44;102231.64;104919;1280;58031;-82
2022/11/27 14:59:24;;;;;;;31.50;18.50;;;;;;;4.60;87.89;102232.03;105246;1286;57619;-84
2022/11/27 15:02:05;;;;;;;28.80;17.80;;;;;;;4.61;87.22;102228.04;105285;1286;62257;-83
2022/11/27 15:04:37;;;;;;;31.30;19.10;;;;;;;4.57;86.64;102229.84;105619;1284;60999;-83
2022/11/27 15:07:29;;;;;;;30.20;19.20;;;;;;;4.49;86.72;102230.55;105253;1286;68466;-81
2022/11/27 15:10:04;;;;;;;30.20;18.10;;;;;;;4.42;86.70;102229.85;105477;1287;73174;-84
2022/11/27 15:12:41;;;;;;;28.20;17.50;;;;;;;4.31;86.57;102240.95;105563;1284;61206;-82
2022/11/27 15:15:40;;;;;;;28.40;17.90;;;;;;;4.34;86.34;102241.41;105687;1288;59120;-83
2022/11/27 15:18:24;;;;;;;31.30;19.40;;;;;;;4.22;86.71;102240.30;105412;1286;62495;-82
2022/11/27 15:20:54;;;;;;;24.70;15.20;;;;;;;4.12;87.00;102239.46;105736;1283;62679;-83
2022/11/27 15:23:30;;;;;;;30.20;18.70;;;;;;;4.17;87.08;102240.58;105547;1288;62487;-83
2022/11/27 15:25:58;;;;;;;31.40;19.10;;;;;;;4.14;87.25;102243.41;105648;1286;73500;-84
2022/11/27 15:28:52;;;;;;;34.30;19.30;;;;;;;4.12;87.49;102245.67;105024;1290;57677;-79
2022/11/27 15:31:28;;;;;;;30.70;18.50;;;;;;;3.97;86.92;102254.26;104928;1283;60576;-82
2022/11/27 15:34:19;;;;;;;31.80;19.20;;;;;;;3.94;87.47;102251.05;105110;1293;63738;-80
2022/11/27 15:37:05;;;;;;;32.80;19.50;;;;;;;3.88;87.81;102254.78;105071;1286;61660;-78
2022/11/27 15:39:53;;;;;;;31.80;20.00;;;;;;;3.79;88.17;102256.52;105200;1283;69790;-83
2022/11/27 15:42:23;;;;;;;34.60;19.00;;;;;;;3.85;88.35;102256.05;105845;1283;73211;-80
2022/11/27 15:44:57;;;;;;;33.00;19.30;;;;;;;3.81;87.87;102254.24;105750;1280;61130;-78
2022/11/27 15:47:34;;;;;;;35.80;21.20;;;;;;;3.73;88.12;102252.33;104939;1282;58379;-79
2022/11/27 15:50:05;;;;;;;16.70;11.30;;;;;;;3.57;87.94;102255.73;105395;1279;72693;-83
2022/11/27 15:52:34;;;;;;;32.70;19.70;;;;;;;3.54;88.22;102253.89;104846;1292;61715;-77
2022/11/27 15:55:03;;;;;;;33.30;19.50;;;;;;;3.42;88.83;102253.24;105194;1289;69806;-84
2022/11/27 15:57:31;;;;;;;30.60;17.00;;;;;;;3.46;88.98;102251.45;106022;1265;73068;-85
2022/11/27 16:00:00;;;;;;;30.90;19.20;;;;;;;3.41;89.03;102247.23;105639;1283;57763;-83
2022/11/27 16:02:39;;;;;;;33.90;18.80;;;;;;;3.41;89.18;102251.20;105717;1289;57645;-83
2022/11/27 16:05:08;;;;;;;34.10;18.90;;;;;;;3.38;89.28;102246.77;105650;1280;72703;-82
2022/11/27 16:07:37;;;;;;;35.30;19.60;;;;;;;3.38;89.34;102250.56;105684;1280;70339;-79
2022/11/27 16:10:07;;;;;;;29.90;17.90;;;;;;;3.42;89.69;102249.30;105572;1280;70873;-85
2022/11/27 16:12:37;;;;;;;35.80;21.40;;;;;;;3.41;89.40;102250.66;105181;1281;74308;-83
2022/11/27 16:15:08;;;;;;;37.50;20.50;;;;;;;3.38;88.86;102255.55;104932;1287;57813;-82
2022/11/27 16:17:36;;;;;;;37.60;22.60;;;;;;;3.42;89.06;102255.15;105387;1284;61323;-81
2022/11/27 16:20:07;;;;;;;36.70;21.20;;;;;;;3.46;89.26;102257.13;105352;1283;62172;-81
2022/11/27 16:22:36;;;;;;;35.70;19.90;;;;;;;3.47;88.88;102259.71;105223;1283;71474;-81
2022/11/27 16:25:06;;;;;;;34.30;20.20;;;;;;;3.50;89.15;102262.05;105032;1290;60600;-83
2022/11/27 16:27:36;;;;;;;34.10;19.90;;;;;;;3.50;88.59;102264.80;105354;1283;63584;-80
2022/11/27 16:30:08;;;;;;;34.30;18.60;;;;;;;3.51;88.14;102262.39;105661;1283;61331;-82
2022/11/27 16:32:38;;;;;;;29.90;16.90;;;;;;;3.53;88.75;102269.94;105770;1280;57478;-82
2022/11/27 16:35:08;;;;;;;31.00;17.30;;;;;;;3.54;88.96;102268.88;105776;1284;72934;-83
2022/11/27 16:37:37;;;;;;;35.70;18.90;;;;;;;3.51;87.44;102272.71;105834;1280;70238;-81
2022/11/27 16:40:07;;;;;;;32.30;18.40;;;;;;;3.58;88.02;102281.55;105594;1283;69743;-82
2022/11/27 16:42:36;;;;;;;33.10;17.70;;;;;;;3.54;86.67;102280.94;105570;1279;62999;-79
2022/11/27 16:45:07;;;;;;;25.60;12.70;;;;;;;3.56;86.46;102280.20;105229;1289;58959;-83
2022/11/27 16:47:36;;;;;;;32.40;17.50;;;;;;;3.56;85.64;102278.48;106086;1283;57378;-80
2022/11/27 16:50:06;;;;;;;31.00;16.90;;;;;;;3.58;86.58;102279.14;105926;1278;72861;-80
2022/11/27 16:52:38;;;;;;;34.80;17.50;;;;;;;3.60;86.72;102280.65;105192;1281;71823;-82
2022/11/27 16:55:08;;;;;;;27.20;16.50;;;;;;;3.51;84.85;102285.64;105708;1282;69522;-81
2022/11/27 16:57:38;;;;;;;29.70;15.80;;;;;;;3.51;85.39;102287.04;105777;1285;63831;-83
2022/11/27 17:00:07;;;;;;;28.90;15.90;;;;;;;3.54;85.68;102287.14;105739;1283;59911;-85
2022/11/27 17:02:36;;;;;;;33.60;16.00;;;;;;;3.55;84.51;102285.92;105953;1286;57543;-79
2022/11/27 17:05:06;;;;;;;29.10;16.00;;;;;;;3.50;84.55;102283.41;105857;1276;63376;-80
2022/11/27 17:07:35;;;;;;;25.90;13.20;;;;;;;3.46;84.64;102291.23;105936;1283;71716;-82
2022/11/27 17:10:07;;;;;;;32.70;15.80;;;;;;;3.50;84.40;102291.17;105678;1284;70854;-83
2022/11/27 17:12:36;;;;;;;30.50;16.20;;;;;;;3.41;83.95;102294.59;105435;1283;62574;-82
2022/11/27 17:15:06;;;;;;;33.70;16.40;;;;;;;3.33;84.07;102295.59;104940;1283;58880;-84
2022/11/27 17:17:38;;;;;;;26.40;13.30;;;;;;;3.36;84.98;102297.96;105018;1288;60607;-78
2022/11/27 17:20:08;;;;;;;24.40;12.80;;;;;;;3.37;84.36;102306.90;104842;1280;72199;-83
2022/11/27 17:22:37;;;;;;;31.20;15.90;;;;;;;3.34;83.66;102305.76;105188;1273;71488;-81
2022/11/27 17:25:09;;;;;;;29.90;15.20;;;;;;;3.30;83.63;102307.36;105058;1286;60379;-85
2022/11/27 17:27:40;;;;;;;;;;;;;;;3.25;84.19;102300.56;105511;1287;62583;-81
2022/11/27 17:30:09;;;;;;;30.70;15.20;;;;;;;3.17;84.28;102297.75;105773;1286;61415;-85
2022/11/27 17:32:38;;;;;;;34.20;17.30;;;;;;;3.18;84.80;102301.17;105817;1286;60454;-82
2022/11/27 17:35:07;;;;;;;22.00;11.20;;;;;;;3.15;85.03;102304.32;106166;1281;72702;-82
2022/11/27 17:37:36;;;;;;;35.10;16.90;;;;;;;3.13;85.27;102303.50;105890;1282;60790;-80
2022/11/27 17:40:06;;;;;;;33.70;16.40;;;;;;;3.16;85.32;102301.22;105181;1283;70030;-84
2022/11/27 17:42:36;;;;;;;27.00;15.00;;;;;;;3.11;85.18;102300.08;105144;1290;73088;-82
2022/11/27 17:45:05;;;;;;;31.30;16.00;;;;;;;3.07;85.12;102296.55;105724;1292;61300;-81
2022/11/27 17:47:34;;;;;;;33.50;17.30;;;;;;;3.04;85.18;102294.17;105060;1286;59162;-79
2022/11/27 17:50:06;;;;;;;27.60;15.30;;;;;;;3.01;85.35;102296.13;105194;1283;72758;-84
2022/11/27 17:52:36;;;;;;;29.30;15.20;;;;;;;3.00;85.39;102291.65;105846;1284;71514;-82
2022/11/27 17:55:06;;;;;;;28.10;16.40;;;;;;;2.94;85.25;102291.23;105192;1283;70664;-85
2022/11/27 17:57:35;;;;;;;27.60;15.30;;;;;;;2.86;85.05;102292.05;105434;1283;62433;-76
2022/11/27 18:00:05;;;;;;;30.40;16.60;;;;;;;2.95;85.75;102293.45;105388;1286;60641;-79
2022/11/27 18:02:41;;;;;;;33.40;16.10;;;;;;;2.92;84.87;102295.57;104974;1279;59637;-83
2022/11/27 18:05:10;;;;;;;26.20;14.50;;;;;;;2.97;84.50;102299.12;105091;1282;71461;-82
2022/11/27 18:07:39;;;;;;;28.10;14.50;;;;;;;2.92;84.31;102300.22;104775;1286;71422;-83
2022/11/27 18:10:08;;;;;;;28.50;15.40;;;;;;;2.92;83.76;102305.55;105148;1280;70107;-83
2022/11/27 18:12:37;;;;;;;30.20;15.00;;;;;;;2.87;84.10;102302.86;105159;1289;64084;-82
2022/11/27 18:15:08;;;;;;;25.80;12.40;;;;;;;2.88;84.23;102306.83;105540;1289;59148;-81
2022/11/27 18:17:37;;;;;;;30.60;15.90;;;;;;;2.91;83.75;102309.02;105605;1273;59238;-82
2022/11/27 18:20:10;;;;;;;28.70;14.70;;;;;;;2.87;83.89;102311.13;106399;1267;62277;31
2022/11/27 18:28:48;;;;;;;30.60;15.80;;;;;;;2.82;83.89;102303.98;103871;1301;601119;-84
2022/11/27 18:31:18;;;;;;;30.10;14.80;;;;;;;2.79;84.11;102305.40;105673;1275;57243;-81
2022/11/27 18:33:47;;;;;;;28.80;14.70;;;;;;;2.79;84.10;102309.71;106101;1270;60221;-82
2022/11/27 18:36:17;;;;;;;31.30;16.70;;;;;;;2.77;84.25;102305.61;106108;1277;61848;-82
2022/11/27 18:38:46;;;;;;;30.20;15.10;;;;;;;2.79;83.92;102304.90;106135;1270;69603;-81
2022/11/27 18:41:27;;;;;;;28.90;14.40;;;;;;;2.75;83.35;102302.71;105327;1274;1717238;-74
2022/11/27 18:43:57;;;;;;;30.00;14.10;;;;;;;2.79;84.15;102300.23;106997;1263;73834;-82
2022/11/27 18:46:26;;;;;;;28.30;15.40;;;;;;;2.71;82.88;102300.00;107024;1271;61547;-81
2022/11/27 18:48:55;;;;;;;31.20;15.10;;;;;;;2.78;84.02;102301.45;106147;1269;58930;-82
2022/11/27 18:51:25;;;;;;;29.40;15.10;;;;;;;2.79;83.83;102300.25;106740;1264;71046;-78
2022/11/27 18:53:55;;;;;;;29.10;15.20;;;;;;;2.74;82.73;102291.89;106317;1271;70119;-83
2022/11/27 18:56:31;;;;;;;32.20;14.70;;;;;;;2.78;83.36;102287.88;106997;1272;59189;-82
2022/11/27 18:59:03;;;;;;;30.10;15.60;;;;;;;2.80;83.64;102288.52;106534;1268;63337;-82
2022/11/27 19:01:36;;;;;;;31.30;15.90;;;;;;;2.77;83.30;102289.60;106833;1263;61197;-79
2022/11/27 19:04:13;;;;;;;33.00;16.00;;;;;;;2.72;82.94;102295.17;106149;1265;59012;-82
2022/11/27 19:06:43;;;;;;;37.30;17.60;;;;;;;2.75;83.51;102300.64;106526;1259;62131;-84
2022/11/27 19:09:13;;;;;;;31.90;16.20;;;;;;;2.77;83.83;102300.61;106109;1263;71259;-83
2022/11/27 19:11:43;;;;;;;32.20;14.90;;;;;;;2.73;83.74;102299.98;106346;1272;59815;-83
2022/11/27 19:14:13;;;;;;;33.60;16.30;;;;;;;2.69;83.66;102297.29;106063;1267;73100;-82
2022/11/27 19:16:47;;;;;;;32.10;16.60;;;;;;;2.67;83.73;102294.73;105916;1267;62395;-82
2022/11/27 19:19:18;;;;;;;33.50;16.10;;;;;;;2.61;82.62;102295.33;105844;1274;60029;-80
2022/11/27 19:22:07;;;;;;;29.50;15.20;;;;;;;2.63;83.29;102296.86;105755;1262;72775;-82
2022/11/27 19:24:36;;;;;;;28.50;14.70;;;;;;;2.62;83.69;102298.95;105901;1269;71861;-81
2022/11/27 19:27:05;;;;;;;28.40;15.30;;;;;;;2.60;82.97;102303.77;105813;1269;69442;-81
2022/11/27 19:29:33;;;;;;;30.70;15.80;;;;;;;2.63;83.57;102299.95;105952;1266;74642;-81
2022/11/27 19:32:02;;;;;;;31.90;15.30;;;;;;;2.59;83.75;102293.83;105973;1277;57546;-82
2022/11/27 19:34:31;;;;;;;28.10;15.30;;;;;;;2.59;83.31;102294.84;106300;1268;59145;-77
2022/11/27 19:37:00;;;;;;;29.70;15.80;;;;;;;2.58;82.47;102297.80;106055;1267;61390;-79
2022/11/27 19:39:29;;;;;;;26.80;14.00;;;;;;;2.60;82.48;102302.92;106496;1260;70126;-79
2022/11/27 19:41:59;;;;;;;28.00;14.80;;;;;;;2.56;82.01;102306.77;105466;1272;71472;-76
2022/11/27 19:44:29;;;;;;;26.50;15.60;;;;;;;2.57;82.70;102304.34;105326;1276;62609;-80
2022/11/27 19:46:59;;;;;;;32.30;17.10;;;;;;;2.57;83.00;102303.83;105385;1278;59115;-77
2022/11/27 19:49:28;;;;;;;29.30;15.60;;;;;;;2.55;83.20;102300.73;105158;1273;59083;-79
2022/11/27 19:51:57;;;;;;;30.80;16.00;;;;;;;2.47;82.76;102300.17;105058;1277;62178;-78
2022/11/27 19:54:26;;;;;;;29.30;15.20;;;;;;;2.48;82.45;102301.37;104985;1282;71591;-77
2022/11/27 19:56:55;;;;;;;31.00;15.10;;;;;;;2.49;82.88;102302.55;104873;1273;71350;-79
2022/11/27 19:59:24;;;;;;;28.00;15.50;;;;;;;2.46;82.42;102301.89;105145;1277;74246;-76
2022/11/27 20:01:54;;;;;;;27.70;14.50;;;;;;;2.44;82.25;102300.21;105106;1275;59227;-80
2022/11/27 20:04:26;;;;;;;30.70;16.30;;;;;;;2.45;82.41;102300.90;105179;1277;59103;-78
2022/11/27 20:06:55;;;;;;;29.20;15.10;;;;;;;2.47;83.05;102297.94;105045;1274;70487;-79
2022/11/27 20:09:24;;;;;;;28.50;14.60;;;;;;;2.43;82.41;102296.45;105132;1276;72774;-79
2022/11/27 20:11:53;;;;;;;28.40;14.30;;;;;;;2.44;82.47;102297.64;105678;1269;60935;-80
2022/11/27 20:14:21;;;;;;;26.90;14.60;;;;;;;2.46;82.76;102298.12;105820;1274;73116;-83
2022/11/27 20:16:51;;;;;;;24.60;13.90;;;;;;;2.43;82.36;102301.77;105856;1273;58190;-80
2022/11/27 20:19:19;;;;;;;25.40;13.30;;;;;;;2.45;83.07;102298.67;105246;1271;61251;-78
2022/11/27 20:21:50;;;;;;;31.20;15.50;;;;;;;2.43;82.72;102296.79;105197;1271;62602;-77
2022/11/27 20:24:19;;;;;;;33.00;16.10;;;;;;;2.43;83.07;102292.83;105178;1277;60911;-79
2022/11/27 20:26:48;;;;;;;28.90;15.30;;;;;;;2.45;83.09;102294.52;105358;1278;59206;-80
2022/11/27 20:29:18;;;;;;;29.70;14.60;;;;;;;2.47;83.26;102288.83;105192;1274;63263;-77
2022/11/27 20:31:47;;;;;;;32.40;17.00;;;;;;;2.42;82.82;102289.07;105358;1268;59583;-77
2022/11/27 20:34:21;;;;;;;28.50;14.50;;;;;;;2.39;82.90;102292.88;105005;1277;61138;-77
2022/11/27 20:36:49;;;;;;;28.60;15.00;;;;;;;2.33;83.53;102294.67;105006;1279;73328;-77
2022/11/27 20:39:19;;;;;;;33.10;17.00;;;;;;;2.29;83.29;102292.17;105000;1283;72015;-77